This is the latest recevied weather packets stored in our database for station/object LU4EGV-13. If no packets are shown the sender has not sent any weather packets the latest 10 day(s).
| Time | Temp. | Humidity | Pressure | Rain* | Wind** | Luminosity | Snow |
|---|---|---|---|---|---|---|---|
| 1778095068 | 26.67° C | 68% | 1002.2 hPa | 0 mm | - | - | - |
| 1778094462 | 27.22° C | 70% | 1002.5 hPa | 0 mm | - | - | - |
| 1778093864 | 26.67° C | 71% | 1002.7 hPa | - | - | - | - |
| 1778093508 | 26.11° C | 71% | 1002.7 hPa | 0 mm | - | - | - |
| 1778092902 | 27.22° C | 70% | 1002.8 hPa | 0 mm | - | - | - |
| 1778092296 | 26.11° C | 74% | 1002.8 hPa | 0 mm | - | - | - |
| 1778091690 | 25.56° C | 74% | 1003 hPa | 0 mm | - | - | - |
| 1778091084 | 25.56° C | 74% | 1003.2 hPa | 0 mm | - | - | - |
| 1778090480 | 25.56° C | 73% | 1003.5 hPa | 0 mm | - | - | - |
| 1778089870 | 26.67° C | 71% | 1003.6 hPa | 0 mm | - | - | - |
| 1778089265 | 26.67° C | 70% | 1003.9 hPa | 0 mm | - | - | - |
| 1778088659 | 28.33° C | 65% | 1004 hPa | 0 mm | - | - | - |
| 1778088052 | 28.33° C | 67% | 1004.3 hPa | 0 mm | - | - | - |
| 1778087457 | 27.22° C | 71% | 1004.4 hPa | 0 mm | - | - | - |
| 1778086840 | 26.67° C | 76% | 1004.6 hPa | 0 mm | - | - | - |
| 1778086237 | 26.11° C | 82% | 1005 hPa | 0 mm | - | - | - |
| 1778085630 | 25.56° C | 89% | 1005.3 hPa | 0 mm | - | - | - |
| 1778085028 | 23.33° C | 92% | 1005.6 hPa | 0 mm | - | - | - |
| 1778084423 | 22.78° C | 90% | 1005.8 hPa | 0 mm | - | - | - |
| 1778083828 | 22.78° C | 91% | 1005.9 hPa | 0 mm | - | - | - |
| 1778083210 | 22.78° C | 91% | 1006.1 hPa | 0 mm | - | - | - |
| 1778082597 | 22.22° C | 91% | 1006.4 hPa | 0 mm | - | - | - |
| 1778081991 | 21.67° C | 92% | 1006.7 hPa | 0 mm | - | - | - |
| 1778081385 | 20.56° C | 93% | 1007 hPa | 0 mm | - | - | - |
| 1778080778 | 20.56° C | 92% | 1007.2 hPa | 0.25 mm | - | - | - |
* Rain latest hour (hover to see other rain measurements)
** Current wind speed in m/s (hover to see current wind gust speed)